sensor_id;sensor_type;location;lat;lon;timestamp;P1;durP1;ratioP1;P2;durP2;ratioP2
78960;SDS011;68362;45.970;12.646;2024-03-08T00:00:20;4.88;;;3.63;;
78960;SDS011;68362;45.970;12.646;2024-03-08T00:01:43;5.38;;;3.20;;
78960;SDS011;68362;45.970;12.646;2024-03-08T00:02:47;4.68;;;3.35;;
78960;SDS011;68362;45.970;12.646;2024-03-08T00:03:53;5.40;;;3.40;;
78960;SDS011;68362;45.970;12.646;2024-03-08T00:04:56;5.00;;;3.45;;
78960;SDS011;68362;45.970;12.646;2024-03-08T00:06:00;5.85;;;3.88;;
78960;SDS011;68362;45.970;12.646;2024-03-08T00:07:03;5.38;;;3.00;;
78960;SDS011;68362;45.970;12.646;2024-03-08T00:08:06;6.18;;;3.47;;
78960;SDS011;68362;45.970;12.646;2024-03-08T00:09:12;7.60;;;3.58;;
78960;SDS011;68362;45.970;12.646;2024-03-08T00:10:15;6.07;;;3.53;;
78960;SDS011;68362;45.970;12.646;2024-03-08T00:11:19;4.63;;;2.85;;
78960;SDS011;68362;45.970;12.646;2024-03-08T00:12:22;4.63;;;3.20;;
78960;SDS011;68362;45.970;12.646;2024-03-08T00:13:25;4.30;;;2.83;;
78960;SDS011;68362;45.970;12.646;2024-03-08T00:14:28;3.63;;;2.63;;
78960;SDS011;68362;45.970;12.646;2024-03-08T00:15:31;4.80;;;2.75;;
78960;SDS011;68362;45.970;12.646;2024-03-08T00:16:34;5.95;;;3.78;;
78960;SDS011;68362;45.970;12.646;2024-03-08T00:17:37;4.72;;;3.20;;
78960;SDS011;68362;45.970;12.646;2024-03-08T00:18:41;4.22;;;2.60;;
78960;SDS011;68362;45.970;12.646;2024-03-08T00:19:44;4.32;;;3.20;;
78960;SDS011;68362;45.970;12.646;2024-03-08T00:20:46;6.35;;;3.45;;
78960;SDS011;68362;45.970;12.646;2024-03-08T00:21:49;4.22;;;3.03;;
78960;SDS011;68362;45.970;12.646;2024-03-08T00:22:52;4.35;;;2.97;;
78960;SDS011;68362;45.970;12.646;2024-03-08T00:23:55;5.40;;;3.50;;
78960;SDS011;68362;45.970;12.646;2024-03-08T00:24:58;5.20;;;3.35;;
78960;SDS011;68362;45.970;12.646;2024-03-08T00:26:00;5.30;;;3.33;;
78960;SDS011;68362;45.970;12.646;2024-03-08T00:27:03;4.15;;;2.75;;
78960;SDS011;68362;45.970;12.646;2024-03-08T00:28:07;6.35;;;3.45;;
78960;SDS011;68362;45.970;12.646;2024-03-08T00:29:09;3.78;;;2.70;;
78960;SDS011;68362;45.970;12.646;2024-03-08T00:30:11;6.47;;;3.03;;
78960;SDS011;68362;45.970;12.646;2024-03-08T00:31:17;3.22;;;2.55;;
78960;SDS011;68362;45.970;12.646;2024-03-08T00:32:20;3.53;;;2.55;;
78960;SDS011;68362;45.970;12.646;2024-03-08T00:33:23;5.47;;;3.30;;
78960;SDS011;68362;45.970;12.646;2024-03-08T00:34:25;3.80;;;2.45;;
78960;SDS011;68362;45.970;12.646;2024-03-08T00:35:28;4.68;;;3.03;;
78960;SDS011;68362;45.970;12.646;2024-03-08T00:36:31;4.38;;;3.15;;
78960;SDS011;68362;45.970;12.646;2024-03-08T00:37:33;4.43;;;2.65;;
78960;SDS011;68362;45.970;12.646;2024-03-08T00:38:39;4.40;;;3.08;;
78960;SDS011;68362;45.970;12.646;2024-03-08T00:39:42;5.13;;;2.85;;
78960;SDS011;68362;45.970;12.646;2024-03-08T00:40:44;4.47;;;2.78;;
78960;SDS011;68362;45.970;12.646;2024-03-08T00:41:47;3.45;;;2.88;;
78960;SDS011;68362;45.970;12.646;2024-03-08T00:42:50;4.20;;;2.85;;
78960;SDS011;68362;45.970;12.646;2024-03-08T00:43:55;3.85;;;2.15;;
78960;SDS011;68362;45.970;12.646;2024-03-08T00:44:58;3.17;;;2.45;;
78960;SDS011;68362;45.970;12.646;2024-03-08T00:46:01;3.03;;;2.03;;
78960;SDS011;68362;45.970;12.646;2024-03-08T00:47:04;2.45;;;1.75;;
78960;SDS011;68362;45.970;12.646;2024-03-08T00:48:08;2.95;;;1.60;;
78960;SDS011;68362;45.970;12.646;2024-03-08T00:49:13;3.40;;;1.88;;
78960;SDS011;68362;45.970;12.646;2024-03-08T00:50:15;3.92;;;1.80;;
78960;SDS011;68362;45.970;12.646;2024-03-08T00:51:18;5.30;;;1.90;;
78960;SDS011;68362;45.970;12.646;2024-03-08T00:53:23;5.30;;;2.10;;
78960;SDS011;68362;45.970;12.646;2024-03-08T00:54:25;2.78;;;1.40;;
78960;SDS011;68362;45.970;12.646;2024-03-08T00:55:28;3.13;;;1.58;;
78960;SDS011;68362;45.970;12.646;2024-03-08T00:56:32;2.53;;;1.40;;
78960;SDS011;68362;45.970;12.646;2024-03-08T00:57:36;2.95;;;1.65;;
78960;SDS011;68362;45.970;12.646;2024-03-08T00:58:38;3.63;;;1.35;;
78960;SDS011;68362;45.970;12.646;2024-03-08T00:59:41;1.48;;;1.10;;
78960;SDS011;68362;45.970;12.646;2024-03-08T01:00:44;1.80;;;1.05;;
78960;SDS011;68362;45.970;12.646;2024-03-08T01:01:47;1.52;;;1.02;;
78960;SDS011;68362;45.970;12.646;2024-03-08T01:02:49;1.88;;;1.00;;
78960;SDS011;68362;45.970;12.646;2024-03-08T01:03:52;4.43;;;1.13;;
78960;SDS011;68362;45.970;12.646;2024-03-08T01:04:54;1.67;;;0.90;;
78960;SDS011;68362;45.970;12.646;2024-03-08T01:05:57;2.22;;;1.13;;
78960;SDS011;68362;45.970;12.646;2024-03-08T01:07:03;1.23;;;0.95;;
78960;SDS011;68362;45.970;12.646;2024-03-08T01:08:06;2.03;;;1.25;;
78960;SDS011;68362;45.970;12.646;2024-03-08T01:09:10;2.25;;;1.40;;
78960;SDS011;68362;45.970;12.646;2024-03-08T01:10:12;1.98;;;1.40;;
78960;SDS011;68362;45.970;12.646;2024-03-08T01:11:15;1.95;;;1.20;;
78960;SDS011;68362;45.970;12.646;2024-03-08T01:12:17;1.52;;;0.98;;
78960;SDS011;68362;45.970;12.646;2024-03-08T01:13:21;1.95;;;1.13;;
78960;SDS011;68362;45.970;12.646;2024-03-08T01:14:23;1.52;;;0.98;;
78960;SDS011;68362;45.970;12.646;2024-03-08T01:15:30;2.45;;;1.10;;
78960;SDS011;68362;45.970;12.646;2024-03-08T01:16:33;1.77;;;0.98;;
78960;SDS011;68362;45.970;12.646;2024-03-08T01:17:36;2.17;;;1.08;;
78960;SDS011;68362;45.970;12.646;2024-03-08T01:18:39;1.02;;;0.85;;
78960;SDS011;68362;45.970;12.646;2024-03-08T01:19:41;1.65;;;0.88;;
78960;SDS011;68362;45.970;12.646;2024-03-08T01:20:43;1.27;;;0.73;;
78960;SDS011;68362;45.970;12.646;2024-03-08T01:21:46;1.20;;;0.90;;
78960;SDS011;68362;45.970;12.646;2024-03-08T01:22:48;1.70;;;1.20;;
78960;SDS011;68362;45.970;12.646;2024-03-08T01:23:50;1.77;;;1.00;;
78960;SDS011;68362;45.970;12.646;2024-03-08T01:24:52;1.83;;;0.82;;
78960;SDS011;68362;45.970;12.646;2024-03-08T01:25:55;1.52;;;1.00;;
78960;SDS011;68362;45.970;12.646;2024-03-08T01:27:00;1.70;;;0.98;;
78960;SDS011;68362;45.970;12.646;2024-03-08T01:28:03;1.88;;;0.93;;
78960;SDS011;68362;45.970;12.646;2024-03-08T01:29:06;2.00;;;1.10;;
78960;SDS011;68362;45.970;12.646;2024-03-08T01:30:08;1.13;;;0.90;;
78960;SDS011;68362;45.970;12.646;2024-03-08T01:32:14;1.98;;;1.10;;
78960;SDS011;68362;45.970;12.646;2024-03-08T01:33:16;1.85;;;0.93;;
78960;SDS011;68362;45.970;12.646;2024-03-08T01:34:19;2.05;;;1.35;;
78960;SDS011;68362;45.970;12.646;2024-03-08T01:35:21;2.10;;;1.10;;
78960;SDS011;68362;45.970;12.646;2024-03-08T01:37:27;2.08;;;0.90;;
78960;SDS011;68362;45.970;12.646;2024-03-08T01:38:30;1.80;;;0.75;;
78960;SDS011;68362;45.970;12.646;2024-03-08T01:39:32;1.17;;;0.68;;
78960;SDS011;68362;45.970;12.646;2024-03-08T01:40:34;1.73;;;1.08;;
78960;SDS011;68362;45.970;12.646;2024-03-08T01:41:38;1.20;;;0.88;;
78960;SDS011;68362;45.970;12.646;2024-03-08T01:42:42;1.88;;;0.93;;
78960;SDS011;68362;45.970;12.646;2024-03-08T01:43:44;1.55;;;1.02;;
78960;SDS011;68362;45.970;12.646;2024-03-08T01:44:47;1.70;;;1.10;;
78960;SDS011;68362;45.970;12.646;2024-03-08T01:45:49;2.20;;;1.15;;
78960;SDS011;68362;45.970;12.646;2024-03-08T01:46:52;1.98;;;1.00;;
78960;SDS011;68362;45.970;12.646;2024-03-08T01:47:55;1.55;;;1.00;;
78960;SDS011;68362;45.970;12.646;2024-03-08T01:48:59;2.40;;;1.40;;
78960;SDS011;68362;45.970;12.646;2024-03-08T01:50:03;2.10;;;1.10;;
78960;SDS011;68362;45.970;12.646;2024-03-08T01:51:08;1.75;;;1.02;;
78960;SDS011;68362;45.970;12.646;2024-03-08T01:52:13;2.17;;;1.45;;
78960;SDS011;68362;45.970;12.646;2024-03-08T01:54:20;2.30;;;1.42;;
78960;SDS011;68362;45.970;12.646;2024-03-08T01:55:22;2.25;;;1.40;;
78960;SDS011;68362;45.970;12.646;2024-03-08T01:56:24;2.20;;;1.48;;
78960;SDS011;68362;45.970;12.646;2024-03-08T01:57:28;3.80;;;1.67;;
78960;SDS011;68362;45.970;12.646;2024-03-08T01:58:30;2.75;;;1.40;;
78960;SDS011;68362;45.970;12.646;2024-03-08T01:59:35;2.13;;;1.20;;
78960;SDS011;68362;45.970;12.646;2024-03-08T02:00:38;3.20;;;1.40;;
78960;SDS011;68362;45.970;12.646;2024-03-08T02:01:42;1.75;;;1.25;;
78960;SDS011;68362;45.970;12.646;2024-03-08T02:02:45;2.67;;;1.33;;
78960;SDS011;68362;45.970;12.646;2024-03-08T02:03:49;1.52;;;1.02;;
78960;SDS011;68362;45.970;12.646;2024-03-08T02:04:51;1.88;;;1.20;;
78960;SDS011;68362;45.970;12.646;2024-03-08T02:05:55;2.72;;;1.40;;
78960;SDS011;68362;45.970;12.646;2024-03-08T02:06:57;2.03;;;1.48;;
78960;SDS011;68362;45.970;12.646;2024-03-08T02:08:02;2.30;;;1.20;;
78960;SDS011;68362;45.970;12.646;2024-03-08T02:09:05;2.08;;;0.93;;
78960;SDS011;68362;45.970;12.646;2024-03-08T02:10:08;2.03;;;0.85;;
78960;SDS011;68362;45.970;12.646;2024-03-08T02:11:10;1.60;;;1.35;;
78960;SDS011;68362;45.970;12.646;2024-03-08T02:12:13;1.35;;;0.90;;
78960;SDS011;68362;45.970;12.646;2024-03-08T02:13:16;1.55;;;1.00;;
78960;SDS011;68362;45.970;12.646;2024-03-08T02:14:18;2.55;;;1.40;;
78960;SDS011;68362;45.970;12.646;2024-03-08T02:15:20;2.03;;;1.20;;
78960;SDS011;68362;45.970;12.646;2024-03-08T02:16:23;3.55;;;1.77;;
78960;SDS011;68362;45.970;12.646;2024-03-08T02:17:25;1.20;;;1.10;;
78960;SDS011;68362;45.970;12.646;2024-03-08T02:18:28;2.03;;;1.40;;
78960;SDS011;68362;45.970;12.646;2024-03-08T02:19:31;2.97;;;1.25;;
78960;SDS011;68362;45.970;12.646;2024-03-08T02:20:35;1.92;;;1.20;;
78960;SDS011;68362;45.970;12.646;2024-03-08T02:21:37;1.77;;;1.20;;
78960;SDS011;68362;45.970;12.646;2024-03-08T02:22:39;1.95;;;0.95;;
78960;SDS011;68362;45.970;12.646;2024-03-08T02:23:41;2.33;;;1.35;;
78960;SDS011;68362;45.970;12.646;2024-03-08T02:24:44;2.28;;;1.05;;
78960;SDS011;68362;45.970;12.646;2024-03-08T02:26:49;1.98;;;1.10;;
78960;SDS011;68362;45.970;12.646;2024-03-08T02:27:51;3.20;;;1.50;;
78960;SDS011;68362;45.970;12.646;2024-03-08T02:28:54;2.67;;;1.45;;
78960;SDS011;68362;45.970;12.646;2024-03-08T02:29:56;3.70;;;1.50;;
78960;SDS011;68362;45.970;12.646;2024-03-08T02:30:59;1.83;;;1.25;;
78960;SDS011;68362;45.970;12.646;2024-03-08T02:32:01;2.22;;;1.40;;
78960;SDS011;68362;45.970;12.646;2024-03-08T02:33:05;1.73;;;0.93;;
78960;SDS011;68362;45.970;12.646;2024-03-08T02:34:08;3.08;;;1.58;;
78960;SDS011;68362;45.970;12.646;2024-03-08T02:35:11;2.22;;;1.52;;
78960;SDS011;68362;45.970;12.646;2024-03-08T02:36:13;2.92;;;1.80;;
78960;SDS011;68362;45.970;12.646;2024-03-08T02:37:16;3.03;;;2.10;;
78960;SDS011;68362;45.970;12.646;2024-03-08T02:38:20;2.78;;;1.83;;
78960;SDS011;68362;45.970;12.646;2024-03-08T02:39:24;2.80;;;1.85;;
78960;SDS011;68362;45.970;12.646;2024-03-08T02:40:26;2.60;;;1.65;;
78960;SDS011;68362;45.970;12.646;2024-03-08T02:41:28;4.00;;;2.50;;
78960;SDS011;68362;45.970;12.646;2024-03-08T02:42:30;3.70;;;2.40;;
78960;SDS011;68362;45.970;12.646;2024-03-08T02:43:33;2.92;;;2.08;;
78960;SDS011;68362;45.970;12.646;2024-03-08T02:44:35;3.47;;;2.45;;
78960;SDS011;68362;45.970;12.646;2024-03-08T02:45:38;5.72;;;2.88;;
78960;SDS011;68362;45.970;12.646;2024-03-08T02:46:40;4.10;;;2.70;;
78960;SDS011;68362;45.970;12.646;2024-03-08T02:47:42;3.92;;;2.40;;
78960;SDS011;68362;45.970;12.646;2024-03-08T02:48:45;5.82;;;3.42;;
78960;SDS011;68362;45.970;12.646;2024-03-08T02:49:47;5.03;;;2.70;;
78960;SDS011;68362;45.970;12.646;2024-03-08T02:50:49;5.35;;;3.60;;
78960;SDS011;68362;45.970;12.646;2024-03-08T02:51:53;4.65;;;2.97;;
78960;SDS011;68362;45.970;12.646;2024-03-08T02:52:56;4.90;;;2.97;;
78960;SDS011;68362;45.970;12.646;2024-03-08T02:53:58;4.93;;;3.00;;
78960;SDS011;68362;45.970;12.646;2024-03-08T02:55:01;6.72;;;3.67;;
78960;SDS011;68362;45.970;12.646;2024-03-08T02:56:04;4.50;;;3.25;;
78960;SDS011;68362;45.970;12.646;2024-03-08T02:57:10;5.60;;;3.72;;
78960;SDS011;68362;45.970;12.646;2024-03-08T02:58:14;5.30;;;3.35;;
78960;SDS011;68362;45.970;12.646;2024-03-08T02:59:16;4.68;;;2.88;;
78960;SDS011;68362;45.970;12.646;2024-03-08T03:00:19;5.70;;;3.90;;
78960;SDS011;68362;45.970;12.646;2024-03-08T03:01:23;6.57;;;4.43;;
78960;SDS011;68362;45.970;12.646;2024-03-08T03:02:25;5.20;;;3.50;;
78960;SDS011;68362;45.970;12.646;2024-03-08T03:03:28;5.13;;;3.38;;
78960;SDS011;68362;45.970;12.646;2024-03-08T03:04:30;6.22;;;3.85;;
78960;SDS011;68362;45.970;12.646;2024-03-08T03:05:32;4.88;;;3.40;;
78960;SDS011;68362;45.970;12.646;2024-03-08T03:06:36;6.20;;;4.30;;
78960;SDS011;68362;45.970;12.646;2024-03-08T03:07:38;8.13;;;4.10;;
78960;SDS011;68362;45.970;12.646;2024-03-08T03:08:40;8.60;;;4.28;;
78960;SDS011;68362;45.970;12.646;2024-03-08T03:09:44;5.03;;;3.53;;
78960;SDS011;68362;45.970;12.646;2024-03-08T03:10:47;9.77;;;3.90;;
78960;SDS011;68362;45.970;12.646;2024-03-08T03:11:49;7.88;;;4.90;;
78960;SDS011;68362;45.970;12.646;2024-03-08T03:12:52;8.77;;;5.03;;
78960;SDS011;68362;45.970;12.646;2024-03-08T03:13:54;7.90;;;4.80;;
78960;SDS011;68362;45.970;12.646;2024-03-08T03:14:57;7.22;;;4.50;;
78960;SDS011;68362;45.970;12.646;2024-03-08T03:16:00;7.40;;;4.07;;
78960;SDS011;68362;45.970;12.646;2024-03-08T03:17:02;5.00;;;3.53;;
78960;SDS011;68362;45.970;12.646;2024-03-08T03:18:04;6.03;;;4.18;;
78960;SDS011;68362;45.970;12.646;2024-03-08T03:19:11;5.68;;;4.15;;
78960;SDS011;68362;45.970;12.646;2024-03-08T03:20:13;7.45;;;4.07;;
78960;SDS011;68362;45.970;12.646;2024-03-08T03:22:19;6.45;;;3.67;;
78960;SDS011;68362;45.970;12.646;2024-03-08T03:24:25;5.35;;;2.85;;
78960;SDS011;68362;45.970;12.646;2024-03-08T03:25:27;6.88;;;4.30;;
78960;SDS011;68362;45.970;12.646;2024-03-08T03:26:34;6.43;;;3.80;;
78960;SDS011;68362;45.970;12.646;2024-03-08T03:27:39;4.88;;;2.92;;
78960;SDS011;68362;45.970;12.646;2024-03-08T03:28:42;5.97;;;3.72;;
78960;SDS011;68362;45.970;12.646;2024-03-08T03:29:45;6.53;;;3.53;;
78960;SDS011;68362;45.970;12.646;2024-03-08T03:30:47;4.82;;;3.35;;
78960;SDS011;68362;45.970;12.646;2024-03-08T03:31:50;5.30;;;3.33;;
78960;SDS011;68362;45.970;12.646;2024-03-08T03:32:52;6.10;;;3.13;;
78960;SDS011;68362;45.970;12.646;2024-03-08T03:33:56;4.72;;;3.08;;
78960;SDS011;68362;45.970;12.646;2024-03-08T03:35:03;4.57;;;2.78;;
78960;SDS011;68362;45.970;12.646;2024-03-08T03:36:07;3.63;;;2.47;;
78960;SDS011;68362;45.970;12.646;2024-03-08T03:37:12;6.25;;;3.28;;
78960;SDS011;68362;45.970;12.646;2024-03-08T03:38:14;3.90;;;2.17;;
78960;SDS011;68362;45.970;12.646;2024-03-08T03:39:16;5.03;;;2.75;;
78960;SDS011;68362;45.970;12.646;2024-03-08T03:40:22;6.32;;;2.65;;
78960;SDS011;68362;45.970;12.646;2024-03-08T03:41:27;5.97;;;3.35;;
78960;SDS011;68362;45.970;12.646;2024-03-08T03:42:29;3.42;;;2.22;;
78960;SDS011;68362;45.970;12.646;2024-03-08T03:43:31;4.60;;;2.55;;
78960;SDS011;68362;45.970;12.646;2024-03-08T03:44:34;3.85;;;2.60;;
78960;SDS011;68362;45.970;12.646;2024-03-08T03:45:36;3.45;;;2.67;;
78960;SDS011;68362;45.970;12.646;2024-03-08T03:46:41;6.05;;;2.83;;
78960;SDS011;68362;45.970;12.646;2024-03-08T03:47:46;4.55;;;2.90;;
78960;SDS011;68362;45.970;12.646;2024-03-08T03:48:48;4.10;;;2.92;;
78960;SDS011;68362;45.970;12.646;2024-03-08T03:49:51;4.18;;;2.20;;
78960;SDS011;68362;45.970;12.646;2024-03-08T03:50:55;3.95;;;2.30;;
78960;SDS011;68362;45.970;12.646;2024-03-08T03:51:57;3.65;;;2.40;;
78960;SDS011;68362;45.970;12.646;2024-03-08T03:53:00;4.60;;;2.63;;
78960;SDS011;68362;45.970;12.646;2024-03-08T03:54:02;5.10;;;2.55;;
78960;SDS011;68362;45.970;12.646;2024-03-08T03:55:05;4.80;;;2.92;;
78960;SDS011;68362;45.970;12.646;2024-03-08T03:56:07;4.45;;;2.55;;
78960;SDS011;68362;45.970;12.646;2024-03-08T03:57:10;4.38;;;2.47;;
78960;SDS011;68362;45.970;12.646;2024-03-08T03:58:14;3.28;;;2.33;;
78960;SDS011;68362;45.970;12.646;2024-03-08T03:59:17;3.42;;;2.10;;
78960;SDS011;68362;45.970;12.646;2024-03-08T04:00:20;5.40;;;2.85;;
78960;SDS011;68362;45.970;12.646;2024-03-08T04:01:22;3.78;;;2.30;;
78960;SDS011;68362;45.970;12.646;2024-03-08T04:02:24;3.67;;;2.28;;
78960;SDS011;68362;45.970;12.646;2024-03-08T04:03:28;3.70;;;2.28;;
78960;SDS011;68362;45.970;12.646;2024-03-08T04:04:30;3.25;;;2.45;;
78960;SDS011;68362;45.970;12.646;2024-03-08T04:05:33;4.32;;;2.50;;
78960;SDS011;68362;45.970;12.646;2024-03-08T04:06:35;4.60;;;1.98;;
78960;SDS011;68362;45.970;12.646;2024-03-08T04:07:38;3.42;;;2.47;;
78960;SDS011;68362;45.970;12.646;2024-03-08T04:08:40;4.57;;;2.55;;
78960;SDS011;68362;45.970;12.646;2024-03-08T04:09:43;4.20;;;2.28;;
78960;SDS011;68362;45.970;12.646;2024-03-08T04:10:45;3.50;;;2.67;;
78960;SDS011;68362;45.970;12.646;2024-03-08T04:11:48;3.85;;;2.67;;
78960;SDS011;68362;45.970;12.646;2024-03-08T04:12:52;3.67;;;2.55;;
78960;SDS011;68362;45.970;12.646;2024-03-08T04:13:54;4.90;;;2.70;;
78960;SDS011;68362;45.970;12.646;2024-03-08T04:14:56;4.32;;;2.95;;
78960;SDS011;68362;45.970;12.646;2024-03-08T04:15:58;5.20;;;3.47;;
78960;SDS011;68362;45.970;12.646;2024-03-08T04:17:01;4.47;;;2.97;;
78960;SDS011;68362;45.970;12.646;2024-03-08T04:18:04;4.75;;;2.83;;
78960;SDS011;68362;45.970;12.646;2024-03-08T04:19:06;4.90;;;3.13;;
78960;SDS011;68362;45.970;12.646;2024-03-08T04:20:10;4.68;;;2.80;;
78960;SDS011;68362;45.970;12.646;2024-03-08T04:21:13;6.18;;;3.72;;
78960;SDS011;68362;45.970;12.646;2024-03-08T04:22:16;5.10;;;3.10;;
78960;SDS011;68362;45.970;12.646;2024-03-08T04:23:18;3.78;;;2.60;;
78960;SDS011;68362;45.970;12.646;2024-03-08T04:24:21;6.43;;;3.53;;
78960;SDS011;68362;45.970;12.646;2024-03-08T04:25:23;4.97;;;2.83;;
78960;SDS011;68362;45.970;12.646;2024-03-08T04:26:26;4.65;;;3.30;;
78960;SDS011;68362;45.970;12.646;2024-03-08T04:27:28;5.32;;;3.40;;
78960;SDS011;68362;45.970;12.646;2024-03-08T04:28:30;4.90;;;3.67;;
78960;SDS011;68362;45.970;12.646;2024-03-08T04:29:33;4.28;;;2.75;;
78960;SDS011;68362;45.970;12.646;2024-03-08T04:30:37;5.90;;;3.22;;
78960;SDS011;68362;45.970;12.646;2024-03-08T04:31:41;5.13;;;3.33;;
78960;SDS011;68362;45.970;12.646;2024-03-08T04:32:43;4.28;;;3.10;;
78960;SDS011;68362;45.970;12.646;2024-03-08T04:33:46;5.20;;;3.08;;
78960;SDS011;68362;45.970;12.646;2024-03-08T04:34:48;4.32;;;3.00;;
78960;SDS011;68362;45.970;12.646;2024-03-08T04:35:51;4.38;;;2.97;;
78960;SDS011;68362;45.970;12.646;2024-03-08T04:36:53;6.43;;;3.42;;
78960;SDS011;68362;45.970;12.646;2024-03-08T04:37:56;6.15;;;2.50;;
78960;SDS011;68362;45.970;12.646;2024-03-08T04:38:59;5.15;;;2.88;;
78960;SDS011;68362;45.970;12.646;2024-03-08T04:40:02;5.10;;;3.30;;
78960;SDS011;68362;45.970;12.646;2024-03-08T04:41:04;5.22;;;3.20;;
78960;SDS011;68362;45.970;12.646;2024-03-08T04:42:06;3.80;;;2.83;;
78960;SDS011;68362;45.970;12.646;2024-03-08T04:43:12;5.55;;;3.13;;
78960;SDS011;68362;45.970;12.646;2024-03-08T04:44:14;4.90;;;3.03;;
78960;SDS011;68362;45.970;12.646;2024-03-08T04:45:17;5.05;;;2.75;;
78960;SDS011;68362;45.970;12.646;2024-03-08T04:46:19;5.60;;;3.33;;
78960;SDS011;68362;45.970;12.646;2024-03-08T04:47:22;3.70;;;2.70;;
78960;SDS011;68362;45.970;12.646;2024-03-08T04:48:24;5.15;;;2.90;;
78960;SDS011;68362;45.970;12.646;2024-03-08T04:49:28;4.47;;;3.15;;
78960;SDS011;68362;45.970;12.646;2024-03-08T04:50:30;4.10;;;2.88;;
78960;SDS011;68362;45.970;12.646;2024-03-08T04:51:33;4.68;;;3.17;;
78960;SDS011;68362;45.970;12.646;2024-03-08T04:52:35;4.85;;;2.92;;
78960;SDS011;68362;45.970;12.646;2024-03-08T04:53:38;3.90;;;2.60;;
78960;SDS011;68362;45.970;12.646;2024-03-08T04:54:41;4.53;;;3.20;;
78960;SDS011;68362;45.970;12.646;2024-03-08T04:55:43;5.00;;;2.75;;
78960;SDS011;68362;45.970;12.646;2024-03-08T04:56:46;5.28;;;2.72;;
78960;SDS011;68362;45.970;12.646;2024-03-08T04:57:48;4.55;;;2.95;;
78960;SDS011;68362;45.970;12.646;2024-03-08T04:58:50;5.00;;;2.92;;
78960;SDS011;68362;45.970;12.646;2024-03-08T04:59:53;3.67;;;2.42;;
78960;SDS011;68362;45.970;12.646;2024-03-08T05:00:55;4.07;;;2.83;;
78960;SDS011;68362;45.970;12.646;2024-03-08T05:01:57;3.60;;;2.75;;
78960;SDS011;68362;45.970;12.646;2024-03-08T05:02:59;4.78;;;2.95;;
78960;SDS011;68362;45.970;12.646;2024-03-08T05:04:02;4.55;;;3.03;;
78960;SDS011;68362;45.970;12.646;2024-03-08T05:05:08;4.40;;;2.92;;
78960;SDS011;68362;45.970;12.646;2024-03-08T05:06:14;4.45;;;2.70;;
78960;SDS011;68362;45.970;12.646;2024-03-08T05:07:16;4.15;;;2.65;;
78960;SDS011;68362;45.970;12.646;2024-03-08T05:08:19;4.25;;;2.67;;
78960;SDS011;68362;45.970;12.646;2024-03-08T05:09:21;3.65;;;2.42;;
78960;SDS011;68362;45.970;12.646;2024-03-08T05:11:26;3.92;;;2.33;;
78960;SDS011;68362;45.970;12.646;2024-03-08T05:12:28;5.35;;;2.92;;
78960;SDS011;68362;45.970;12.646;2024-03-08T05:13:30;4.43;;;2.72;;
78960;SDS011;68362;45.970;12.646;2024-03-08T05:14:33;4.95;;;2.55;;
78960;SDS011;68362;45.970;12.646;2024-03-08T05:15:37;4.05;;;2.65;;
78960;SDS011;68362;45.970;12.646;2024-03-08T05:16:41;3.75;;;2.50;;
78960;SDS011;68362;45.970;12.646;2024-03-08T05:17:43;3.70;;;2.58;;
78960;SDS011;68362;45.970;12.646;2024-03-08T05:18:46;4.50;;;3.03;;
78960;SDS011;68362;45.970;12.646;2024-03-08T05:19:49;5.45;;;3.13;;
78960;SDS011;68362;45.970;12.646;2024-03-08T05:20:53;3.92;;;3.08;;
78960;SDS011;68362;45.970;12.646;2024-03-08T05:21:55;3.70;;;2.53;;
78960;SDS011;68362;45.970;12.646;2024-03-08T05:22:57;3.75;;;2.47;;
78960;SDS011;68362;45.970;12.646;2024-03-08T05:24:02;4.63;;;3.10;;
78960;SDS011;68362;45.970;12.646;2024-03-08T05:25:05;3.80;;;2.67;;
78960;SDS011;68362;45.970;12.646;2024-03-08T05:26:09;5.50;;;3.40;;
78960;SDS011;68362;45.970;12.646;2024-03-08T05:27:11;5.13;;;3.10;;
78960;SDS011;68362;45.970;12.646;2024-03-08T05:28:15;3.92;;;2.35;;
78960;SDS011;68362;45.970;12.646;2024-03-08T05:29:17;5.32;;;2.88;;
78960;SDS011;68362;45.970;12.646;2024-03-08T05:31:23;4.57;;;2.42;;
78960;SDS011;68362;45.970;12.646;2024-03-08T05:32:26;4.22;;;2.67;;
78960;SDS011;68362;45.970;12.646;2024-03-08T05:33:32;4.78;;;2.88;;
78960;SDS011;68362;45.970;12.646;2024-03-08T05:34:36;4.13;;;2.67;;
78960;SDS011;68362;45.970;12.646;2024-03-08T05:35:39;4.70;;;3.25;;
78960;SDS011;68362;45.970;12.646;2024-03-08T05:36:41;3.63;;;2.20;;
78960;SDS011;68362;45.970;12.646;2024-03-08T05:37:48;2.70;;;2.17;;
78960;SDS011;68362;45.970;12.646;2024-03-08T05:38:50;3.60;;;2.38;;
78960;SDS011;68362;45.970;12.646;2024-03-08T05:39:52;3.70;;;2.20;;
78960;SDS011;68362;45.970;12.646;2024-03-08T05:40:56;4.43;;;2.70;;
78960;SDS011;68362;45.970;12.646;2024-03-08T05:41:58;3.42;;;2.20;;
78960;SDS011;68362;45.970;12.646;2024-03-08T05:43:00;4.50;;;2.63;;
78960;SDS011;68362;45.970;12.646;2024-03-08T05:44:03;4.43;;;2.58;;
78960;SDS011;68362;45.970;12.646;2024-03-08T05:45:05;4.05;;;2.58;;
78960;SDS011;68362;45.970;12.646;2024-03-08T05:46:08;3.80;;;2.53;;
78960;SDS011;68362;45.970;12.646;2024-03-08T05:47:10;4.25;;;2.60;;
78960;SDS011;68362;45.970;12.646;2024-03-08T05:48:13;4.97;;;2.70;;
78960;SDS011;68362;45.970;12.646;2024-03-08T05:49:15;5.50;;;2.85;;
78960;SDS011;68362;45.970;12.646;2024-03-08T05:50:18;4.63;;;2.60;;
78960;SDS011;68362;45.970;12.646;2024-03-08T05:51:23;3.47;;;2.60;;
78960;SDS011;68362;45.970;12.646;2024-03-08T05:52:25;4.32;;;2.70;;
78960;SDS011;68362;45.970;12.646;2024-03-08T05:53:27;3.15;;;2.67;;
78960;SDS011;68362;45.970;12.646;2024-03-08T05:54:34;6.90;;;3.40;;
78960;SDS011;68362;45.970;12.646;2024-03-08T05:55:36;5.80;;;3.00;;
78960;SDS011;68362;45.970;12.646;2024-03-08T05:56:38;4.90;;;3.35;;
78960;SDS011;68362;45.970;12.646;2024-03-08T05:57:45;4.32;;;2.40;;
78960;SDS011;68362;45.970;12.646;2024-03-08T05:58:48;4.00;;;2.90;;
78960;SDS011;68362;45.970;12.646;2024-03-08T05:59:51;4.43;;;2.78;;
78960;SDS011;68362;45.970;12.646;2024-03-08T06:00:54;4.63;;;3.33;;
78960;SDS011;68362;45.970;12.646;2024-03-08T06:01:56;3.75;;;2.75;;
78960;SDS011;68362;45.970;12.646;2024-03-08T06:02:58;4.82;;;2.53;;
78960;SDS011;68362;45.970;12.646;2024-03-08T06:04:01;4.78;;;2.83;;
78960;SDS011;68362;45.970;12.646;2024-03-08T06:05:03;4.30;;;2.70;;
78960;SDS011;68362;45.970;12.646;2024-03-08T06:06:06;4.25;;;2.50;;
78960;SDS011;68362;45.970;12.646;2024-03-08T06:07:08;4.95;;;2.90;;
78960;SDS011;68362;45.970;12.646;2024-03-08T06:08:14;4.03;;;2.55;;
78960;SDS011;68362;45.970;12.646;2024-03-08T06:09:16;4.20;;;2.67;;
78960;SDS011;68362;45.970;12.646;2024-03-08T06:10:26;5.70;;;2.65;;
78960;SDS011;68362;45.970;12.646;2024-03-08T06:11:28;5.05;;;3.15;;
78960;SDS011;68362;45.970;12.646;2024-03-08T06:12:32;5.43;;;3.08;;
78960;SDS011;68362;45.970;12.646;2024-03-08T06:13:38;4.38;;;3.25;;
78960;SDS011;68362;45.970;12.646;2024-03-08T06:14:41;4.10;;;2.53;;
78960;SDS011;68362;45.970;12.646;2024-03-08T06:15:43;4.55;;;2.78;;
78960;SDS011;68362;45.970;12.646;2024-03-08T06:17:48;3.95;;;2.67;;
78960;SDS011;68362;45.970;12.646;2024-03-08T06:18:51;4.60;;;2.58;;
78960;SDS011;68362;45.970;12.646;2024-03-08T06:19:53;5.88;;;2.70;;
78960;SDS011;68362;45.970;12.646;2024-03-08T06:20:56;5.38;;;2.95;;
78960;SDS011;68362;45.970;12.646;2024-03-08T06:21:58;3.88;;;2.67;;
78960;SDS011;68362;45.970;12.646;2024-03-08T06:23:00;4.80;;;3.45;;
78960;SDS011;68362;45.970;12.646;2024-03-08T06:24:03;5.57;;;3.00;;